Wareham, MA (02571)

8:44 PM EST on February 10, 2016 (GMT -0500)
Wareham Middle School | | Change Station
CLOSE
Current Station
Personal Weather Station
Location: Wareham, MA
Elevation: 13 ft
Nearby Weather Stations
Active Advisory: Special Statement

Elev 13 ft 41.76 °N, 70.72 °W | Updated 3 minutes ago

Clear
Clear
30.3 °F
Feels Like 30 °F
N
0.0
Wind Variable Wind from WSW
Gusts 1.1 mph

Today
High -- | Low -- °F
--% Chance of Precip.
Yesterday
High -- | Low -- °F
Precip. -- in
Pressure 29.63 in
Visibility 6.0 miles
Clouds Clear
Windchill 30 °F
Dew Point 30 °F
Humidity 97%
Rainfall Not available.
Snow Depth Not available.
6:45 AM 5:09 PM
Waxing Crescent, 8% visible
SPECI KPYM 110136Z AUTO 23003KT 6SM BR CLR M02/M02 A2963 RMK AO2 I1000 T10171017
Pressure 29.63 in
Visibility 6.0 miles
Clouds Clear
Windchill 30 °F
Dew Point 30 °F
Humidity 97%
Rainfall Not available.
Snow Depth Not available.
6:45 AM 5:09 PM
Waxing Crescent, 8% visible
SPECI KPYM 110136Z AUTO 23003KT 6SM BR CLR M02/M02 A2963 RMK AO2 I1000 T10171017

10-Day Weather Forecast

Almanac

Astronomy

Feb. 10, 2016 Rise Set
Actual Time
Civil Twilight
Nautical Twilight
Astronomical Twilight
Moon
Length of Visible Light
Length of Day
Tomorrow will be .
, % of the Moon is Illuminated

Today's Extremes

State Highs State Lows

Community

WunderPhotos

Upload Photos

1,891,970 photos uploaded!

WunderBlog® & News

Nearby

Air Quality

  Air Quality AQ Index Pollutant
Not available.

Snow Depth

Station Depth Elevation

Earthquake Activity

City Distance Mag. Time & Date
Minimum magnitude displayed is 2.5.

Coastal Water Temperatures

Place Temperature

Stations

Nearby Weather Stations

Station Location Temp. Windchill Dew Point Humidity Wind Precip. Elev Updated Type
                   

Watches & Warnings

Special Statement
Issued: 7:53 PM EST Feb. 10, 2016 – National Weather Service

... Patchy black ice may develop this evening...

Isolated snow showers will be coming to an end this evening.
However... temperatures were dropping below freezing and winds
were rather light. This may allow patchy black ice to develop on
wet roads and walkways from the earlier snow showers. Motorists
are urged to drive with extra caution this evening as roads that
appear wet may be icy.


Frank


753 PM EST Wed Feb 10 2016

... Patchy black ice may develop this evening...

Isolated snow showers will be coming to an end this evening.
However... temperatures were dropping below freezing and winds
were rather light. This may allow patchy black ice to develop on
wet roads and walkways from the earlier snow showers. Motorists
are urged to drive with extra caution this evening as roads that
appear wet may be icy.


Frank